MVP weather

Fabio Alberto Leon Bentley Airport
Mitú, Vaupés Department, Colombia

Public forecast

Using degrees Celsius for public forecast. Weather courtesy of forecast.io.

METAR (pilot weather report)

Report is more than 6 hours old.

Retrieved 2019/07/02 14:00 UTC (17 days ago):

SKMU 021400Z 01008KT 1000 -DZ VV/// 23/22 A3012 RMK/ AD BLW MNM MET

TAF (pilot weather forecast)

Forecast is more than 12 hours old.

Closest forecast is São Gabriel da Cachoeira Airport, 212.4 nm (393.4 km) ESE. Retrieved 2011/08/01 18:04 UTC (8 years ago):

TAF SBUA 011600Z 0118/0206 03005KT 9999 FEW020 TX34/0119Z TN23/0205Z PROB30 0119/0202 12005KT 8000 SHRA SCT020 FEW025TCU RMK PDX